Vega Emtoli — LAQY7 — position and weather

sailwx.info

Track history (hours):
 
Tides and Currents Weather Stations Pressure Air Temp Water Temp Dewpoint Dewpoint Depression Visibility Wind Speed Wind Dir Waves Ship Positions

Vega Emtoli

Last reported at 2014-Dec-22 04:11 UTC. Time now 2014-Dec-22 05:32 UTC.
Position S 23°33' W 041°03'.

Length 59 m; draft 4.2 m.

Type: Pollution control. MMSI: 258026000.

Date/timePositionNaut miles runAvg speedWind from/ knotsBaromVisibWave heightAir tempDewpointWater temp
2014-Dec-22 04:11S 23°33' W 041°03'1 0.4
2014-Dec-22 02:19S 23°32' W 041°03'0 0.5
2014-Dec-22 01:32S 23°32' W 041°02'0 0.3
2014-Dec-22 00:34S 23°33' W 041°02'0 0.5
2014-Dec-21 23:34S 23°33' W 041°03'1 0.3
2014-Dec-21 21:11S 23°33' W 041°03'0 0.3
2014-Dec-21 20:24S 23°33' W 041°03'0 0.3
2014-Dec-21 19:31S 23°33' W 041°04'0 0.3
2014-Dec-21 18:33S 23°33' W 041°04'0 0.2
2014-Dec-21 17:34S 23°33' W 041°04'1 0.4
2014-Dec-21 15:08S 23°33' W 041°03'1 0.6
2014-Dec-21 13:33S 23°34' W 041°02'0 0.3
2014-Dec-21 12:33S 23°34' W 041°02'0 0.5
2014-Dec-21 11:33S 23°34' W 041°02'1 0.6
2014-Dec-21 10:32S 23°33' W 041°02'0 0.5
2014-Dec-21 09:34S 23°33' W 041°02'1 0.6
2014-Dec-21 08:34S 23°32' W 041°02'1 0.9
2014-Dec-21 07:32S 23°31' W 041°01'1 1.2
2014-Dec-21 06:33S 23°30' W 041°02'0 0.4
2014-Dec-21 05:34S 23°30' W 041°02'1 0.6
2014-Dec-21 04:34S 23°30' W 041°01'0 0.3
2014-Dec-21 03:32S 23°30' W 041°01'0 0.2
2014-Dec-21 02:34S 23°30' W 041°01'0 0.2
2014-Dec-21 01:34S 23°31' W 041°01'0 0.1
2014-Dec-21 00:13S 23°31' W 041°00'0 0.2
2014-Dec-20 23:33S 23°31' W 041°00'0 0.4
2014-Dec-20 22:31S 23°31' W 041°01'1 1.0
2014-Dec-20 21:34S 23°32' W 041°01'1 0.7
2014-Dec-20 20:33S 23°32' W 041°02'1 0.6
2014-Dec-20 19:23S 23°33' W 041°02'0 0.4
2014-Dec-20 18:33S 23°33' W 041°03'  
2014-Dec-16 08:33S 23°27' W 041°02'1 1.0
2014-Dec-16 07:33S 23°27' W 041°03'2 0.5
2014-Dec-16 04:06S 23°29' W 041°03'1 2.5
2014-Dec-16 03:32S 23°28' W 041°02'2 2.1
2014-Dec-16 02:33S 23°27' W 040°60'2 1.8
2014-Dec-16 01:32S 23°29' W 041°01'2 1.7
2014-Dec-16 00:31S 23°30' W 041°03'1 1.0
2014-Dec-15 23:33S 23°29' W 041°02'2 2.0
2014-Dec-15 22:34S 23°28' W 041°00'0 0.2
2014-Dec-15 21:33S 23°28' W 041°00'3 1.9
2014-Dec-15 20:07S 23°29' W 041°03'1 1.5
2014-Dec-15 19:34S 23°30' W 041°03'1 0.8
2014-Dec-15 18:33S 23°29' W 041°03'2 2.5
2014-Dec-15 17:34S 23°28' W 041°01'1 0.6
2014-Dec-15 16:33S 23°27' W 041°00'2 1.9
2014-Dec-15 15:33S 23°29' W 041°01'1 0.9
2014-Dec-15 14:32S 23°29' W 040°60'1 0.8
2014-Dec-15 13:33S 23°30' W 041°00'1 0.9
2014-Dec-15 12:33S 23°30' W 040°60'1 0.7
2014-Dec-15 11:33S 23°31' W 041°00'2 1.0
2014-Dec-15 09:33S 23°31' W 041°02'2 2.3
2014-Dec-15 08:34S 23°30' W 040°60'2 2.2
2014-Dec-15 07:34S 23°29' W 040°58'1 0.7
2014-Dec-15 06:29S 23°29' W 040°58'1 0.6
2014-Dec-15 05:18S 23°30' W 040°58'0 0.6
2014-Dec-15 04:25S 23°31' W 040°58'1 0.8
2014-Dec-15 03:32S 23°31' W 040°59'1 0.6
2014-Dec-15 02:33S 23°31' W 040°59'1 0.5
2014-Dec-15 01:33S 23°32' W 040°60'1 0.6
2014-Dec-15 00:33S 23°32' W 041°00'1 0.5
2014-Dec-14 23:33S 23°32' W 041°01'1 1.1
2014-Dec-14 22:34S 23°32' W 041°00'1 0.3
2014-Dec-14 20:18S 23°31' W 041°00'1 1.0
2014-Dec-14 19:12S 23°31' W 041°01'1 1.0
2014-Dec-14 18:34S 23°30' W 041°02'1 1.0
2014-Dec-14 17:34S 23°30' W 041°03'2 2.4
2014-Dec-14 16:34S 23°28' W 041°01'2 2.0
2014-Dec-14 15:33S 23°27' W 041°00'1 1.2
2014-Dec-14 14:34S 23°28' W 041°01'1 1.0
2014-Dec-14 13:34S 23°29' W 041°01'0 0.3
2014-Dec-14 12:34S 23°29' W 041°01'1 0.5
2014-Dec-14 11:34S 23°29' W 041°01'1 0.6
2014-Dec-14 10:34S 23°30' W 041°00'1 0.6
2014-Dec-14 08:33S 23°29' W 041°00'1 0.9
2014-Dec-14 07:33S 23°29' W 041°01'1 0.7
2014-Dec-14 06:33S 23°30' W 041°02'1 0.6
2014-Dec-14 05:30S 23°30' W 041°02'12 3.6
2014-Dec-14 02:09S 23°18' W 041°06'5 7.9
2014-Dec-14 01:34S 23°15' W 041°02'8 8.0
2014-Dec-14 00:34S 23°09' W 040°56'9 8.5
2014-Dec-13 23:33S 23°02' W 040°52'  
Track history (hours):
 
Tides and Currents Weather Stations Pressure Air Temp Water Temp Dewpoint Dewpoint Depression Visibility Wind Speed Wind Dir Waves Ship Positions

Vega Emtoli

Last reported at 2014-Dec-22 04:11 UTC. Time now 2014-Dec-22 05:32 UTC.
Position S 23°33' W 041°03'.

Length 59 m; draft 4.2 m.

Type: Pollution control. MMSI: 258026000.

Date/timePositionNaut miles runAvg speedWind from/ knotsBaromVisibWave heightAir tempDewpointWater temp
2014-Dec-22 04:11S 23°33' W 041°03'1 0.4
2014-Dec-22 02:19S 23°32' W 041°03'0 0.5
2014-Dec-22 01:32S 23°32' W 041°02'0 0.3
2014-Dec-22 00:34S 23°33' W 041°02'0 0.5
2014-Dec-21 23:34S 23°33' W 041°03'1 0.3
2014-Dec-21 21:11S 23°33' W 041°03'0 0.3
2014-Dec-21 20:24S 23°33' W 041°03'0 0.3
2014-Dec-21 19:31S 23°33' W 041°04'0 0.3
2014-Dec-21 18:33S 23°33' W 041°04'0 0.2
2014-Dec-21 17:34S 23°33' W 041°04'1 0.4
2014-Dec-21 15:08S 23°33' W 041°03'1 0.6
2014-Dec-21 13:33S 23°34' W 041°02'0 0.3
2014-Dec-21 12:33S 23°34' W 041°02'0 0.5
2014-Dec-21 11:33S 23°34' W 041°02'1 0.6
2014-Dec-21 10:32S 23°33' W 041°02'0 0.5
2014-Dec-21 09:34S 23°33' W 041°02'1 0.6
2014-Dec-21 08:34S 23°32' W 041°02'1 0.9
2014-Dec-21 07:32S 23°31' W 041°01'1 1.2
2014-Dec-21 06:33S 23°30' W 041°02'0 0.4
2014-Dec-21 05:34S 23°30' W 041°02'1 0.6
2014-Dec-21 04:34S 23°30' W 041°01'0 0.3
2014-Dec-21 03:32S 23°30' W 041°01'0 0.2
2014-Dec-21 02:34S 23°30' W 041°01'0 0.2
2014-Dec-21 01:34S 23°31' W 041°01'0 0.1
2014-Dec-21 00:13S 23°31' W 041°00'0 0.2
2014-Dec-20 23:33S 23°31' W 041°00'0 0.4
2014-Dec-20 22:31S 23°31' W 041°01'1 1.0
2014-Dec-20 21:34S 23°32' W 041°01'1 0.7
2014-Dec-20 20:33S 23°32' W 041°02'1 0.6
2014-Dec-20 19:23S 23°33' W 041°02'0 0.4
2014-Dec-20 18:33S 23°33' W 041°03'  
2014-Dec-16 08:33S 23°27' W 041°02'1 1.0
2014-Dec-16 07:33S 23°27' W 041°03'2 0.5
2014-Dec-16 04:06S 23°29' W 041°03'1 2.5
2014-Dec-16 03:32S 23°28' W 041°02'2 2.1
2014-Dec-16 02:33S 23°27' W 040°60'2 1.8
2014-Dec-16 01:32S 23°29' W 041°01'2 1.7
2014-Dec-16 00:31S 23°30' W 041°03'1 1.0
2014-Dec-15 23:33S 23°29' W 041°02'2 2.0
2014-Dec-15 22:34S 23°28' W 041°00'0 0.2
2014-Dec-15 21:33S 23°28' W 041°00'3 1.9
2014-Dec-15 20:07S 23°29' W 041°03'1 1.5
2014-Dec-15 19:34S 23°30' W 041°03'1 0.8
2014-Dec-15 18:33S 23°29' W 041°03'2 2.5
2014-Dec-15 17:34S 23°28' W 041°01'1 0.6
2014-Dec-15 16:33S 23°27' W 041°00'2 1.9
2014-Dec-15 15:33S 23°29' W 041°01'1 0.9
2014-Dec-15 14:32S 23°29' W 040°60'1 0.8
2014-Dec-15 13:33S 23°30' W 041°00'1 0.9
2014-Dec-15 12:33S 23°30' W 040°60'1 0.7
2014-Dec-15 11:33S 23°31' W 041°00'2 1.0
2014-Dec-15 09:33S 23°31' W 041°02'2 2.3
2014-Dec-15 08:34S 23°30' W 040°60'2 2.2
2014-Dec-15 07:34S 23°29' W 040°58'1 0.7
2014-Dec-15 06:29S 23°29' W 040°58'1 0.6
2014-Dec-15 05:18S 23°30' W 040°58'0 0.6
2014-Dec-15 04:25S 23°31' W 040°58'1 0.8
2014-Dec-15 03:32S 23°31' W 040°59'1 0.6
2014-Dec-15 02:33S 23°31' W 040°59'1 0.5
2014-Dec-15 01:33S 23°32' W 040°60'1 0.6
2014-Dec-15 00:33S 23°32' W 041°00'1 0.5
2014-Dec-14 23:33S 23°32' W 041°01'1 1.1
2014-Dec-14 22:34S 23°32' W 041°00'1 0.3
2014-Dec-14 20:18S 23°31' W 041°00'1 1.0
2014-Dec-14 19:12S 23°31' W 041°01'1 1.0
2014-Dec-14 18:34S 23°30' W 041°02'1 1.0
2014-Dec-14 17:34S 23°30' W 041°03'2 2.4
2014-Dec-14 16:34S 23°28' W 041°01'2 2.0
2014-Dec-14 15:33S 23°27' W 041°00'1 1.2
2014-Dec-14 14:34S 23°28' W 041°01'1 1.0
2014-Dec-14 13:34S 23°29' W 041°01'0 0.3
2014-Dec-14 12:34S 23°29' W 041°01'1 0.5
2014-Dec-14 11:34S 23°29' W 041°01'1 0.6
2014-Dec-14 10:34S 23°30' W 041°00'1 0.6
2014-Dec-14 08:33S 23°29' W 041°00'1 0.9
2014-Dec-14 07:33S 23°29' W 041°01'1 0.7
2014-Dec-14 06:33S 23°30' W 041°02'1 0.6
2014-Dec-14 05:30S 23°30' W 041°02'12 3.6
2014-Dec-14 02:09S 23°18' W 041°06'5 7.9
2014-Dec-14 01:34S 23°15' W 041°02'8 8.0
2014-Dec-14 00:34S 23°09' W 040°56'9 8.5
2014-Dec-13 23:33S 23°02' W 040°52'  

Dump ship's entire track history